Map

Track Data

SID SEASON NUMBER BASIN SUBBASIN NAME ISO_TIME NATURE LAT LON WMO_WIND WMO_PRES WMO_AGENCY TRACK_TYPE DIST2LAND LANDFALL IFLAG USA_AGENCY USA_ATCF_ID USA_LAT USA_LON USA_RECORD USA_STATUS USA_WIND USA_PRES USA_SSHS USA_R34_NE USA_R34_SE USA_R34_SW USA_R34_NW USA_R50_NE USA_R50_SE USA_R50_SW USA_R50_NW USA_R64_NE USA_R64_SE USA_R64_SW USA_R64_NW USA_POCI USA_ROCI USA_RMW USA_EYE TOKYO_LAT TOKYO_LON TOKYO_GRADE TOKYO_WIND TOKYO_PRES TOKYO_R50_DIR TOKYO_R50_LONG TOKYO_R50_SHORT TOKYO_R30_DIR TOKYO_R30_LONG TOKYO_R30_SHORT TOKYO_LAND CMA_LAT CMA_LON CMA_CAT CMA_WIND CMA_PRES HKO_LAT HKO_LON HKO_CAT HKO_WIND HKO_PRES NEWDELHI_LAT NEWDELHI_LON NEWDELHI_GRADE NEWDELHI_WIND NEWDELHI_PRES NEWDELHI_CI NEWDELHI_DP NEWDELHI_POCI REUNION_LAT REUNION_LON REUNION_TYPE REUNION_WIND REUNION_PRES REUNION_TNUM REUNION_CI REUNION_RMW REUNION_R34_NE REUNION_R34_SE REUNION_R34_SW REUNION_R34_NW REUNION_R50_NE REUNION_R50_SE REUNION_R50_SW REUNION_R50_NW REUNION_R64_NE REUNION_R64_SE REUNION_R64_SW REUNION_R64_NW BOM_LAT BOM_LON BOM_TYPE BOM_WIND BOM_PRES BOM_TNUM BOM_CI BOM_RMW BOM_R34_NE BOM_R34_SE BOM_R34_SW BOM_R34_NW BOM_R50_NE BOM_R50_SE BOM_R50_SW BOM_R50_NW BOM_R64_NE BOM_R64_SE BOM_R64_SW BOM_R64_NW BOM_ROCI BOM_POCI BOM_EYE BOM_POS_METHOD BOM_PRES_METHOD NADI_LAT NADI_LON NADI_CAT NADI_WIND NADI_PRES WELLINGTON_LAT WELLINGTON_LON WELLINGTON_WIND WELLINGTON_PRES DS824_LAT DS824_LON DS824_STAGE DS824_WIND DS824_PRES TD9636_LAT TD9636_LON TD9636_STAGE TD9636_WIND TD9636_PRES TD9635_LAT TD9635_LON TD9635_WIND TD9635_PRES TD9635_ROCI NEUMANN_LAT NEUMANN_LON NEUMANN_CLASS NEUMANN_WIND NEUMANN_PRES MLC_LAT MLC_LON MLC_CLASS MLC_WIND MLC_PRES USA_GUST BOM_GUST BOM_GUST_PER REUNION_GUST REUNION_GUST_PER USA_SEAHGT USA_SEARAD_NE USA_SEARAD_SE USA_SEARAD_SW USA_SEARAD_NW STORM_SPEED STORM_DIR
1969044S21039 1969 11 SI MM GILLETTE 1969-02-13 06:00:00 TS -20.7000 38.5000 main 305 305 O________OO___ jtwc_sh SH221969 -20.7000 38.5000 -1 -20.7000 38.5000 TC 25 -20.7000 38.5000 7 3 158
1969044S21039 1969 11 SI MM GILLETTE 1969-02-13 09:00:00 TS -20.8511 38.5530 main 328 328 P________PP___ SH221969 -20.8500 38.5475 -1 -20.8500 38.5475 TC 25 -20.8532 38.5639 7 3 162
1969044S21039 1969 11 SI MM GILLETTE 1969-02-13 12:00:00 TS -21.0017 38.6074 main 336 336 O________OP___ jtwc_sh SH221969 -21.0000 38.6000 -1 -21.0000 38.6000 TC 25 -21.0050 38.6223 7 3 160
1969044S21039 1969 11 SI MM GILLETTE 1969-02-13 15:00:00 TS -21.1515 38.6615 main 348 345 P________PP___ SH221969 -21.1500 38.6575 -1 -21.1500 38.6575 TC 25 -21.1544 38.6696 7 3 163
1969044S21039 1969 11 SI MM GILLETTE 1969-02-13 18:00:00 TS -21.3000 38.7000 main 345 342 O________OO___ jtwc_sh SH221969 -21.3000 38.7000 -1 -21.3000 38.7000 TC 25 -21.3000 38.7000 1 3 171
1969044S21039 1969 11 SI MM GILLETTE 1969-02-13 21:00:00 TS -21.4518 38.7085 main 339 336 P________PP___ SH221969 -21.4575 38.7075 -1 -21.4575 38.7075 TC 25 -21.4403 38.7104 1 3 0
1969044S21039 1969 11 SI MM GILLETTE 1969-02-14 00:00:00 TS -21.5908 38.7025 main 336 334 O________OP___ jtwc_sh SH221969 -21.6000 38.7000 -1 -21.6000 38.7000 TC 25 -21.5725 38.7076 1 3 183
1969044S21039 1969 11 SI MM GILLETTE 1969-02-14 03:00:00 TS -21.7078 38.6953 main 334 332 P________PP___ SH221969 -21.7150 38.6925 -1 -21.7150 38.6925 TC 25 -21.6934 38.7010 1 2 182
1969044S21039 1969 11 SI MM GILLETTE 1969-02-14 06:00:00 TS -21.8000 38.7000 main 332 331 O________OO___ jtwc_sh SH221969 -21.8000 38.7000 -1 -21.8000 38.7000 TC 25 -21.8000 38.7000 1 2 169
1969044S21039 1969 11 SI MM GILLETTE 1969-02-14 09:00:00 TS -21.8631 38.7406 main 331 331 P________PP___ SH221969 -21.8500 38.7500 -1 -21.8500 38.7500 TC 25 -21.8894 38.7219 1 1 149
1969044S21039 1969 11 SI MM GILLETTE 1969-02-14 12:00:00 TS -21.9217 38.7833 main 341 340 O________OP___ jtwc_sh SH221969 -21.9000 38.8000 -1 -21.9000 38.8000 TC 25 -21.9650 38.7500 1 2 159
1969044S21039 1969 11 SI MM GILLETTE 1969-02-14 15:00:00 TS -22.0110 38.7977 main 340 339 P________PP___ SH221969 -22.0000 38.8075 -1 -22.0000 38.8075 TC 25 -22.0331 38.7781 1 2 0
1969044S21039 1969 11 SI MM GILLETTE 1969-02-14 18:00:00 TS -22.1000 38.8000 main 339 337 O________OO___ jtwc_sh SH221969 -22.1000 38.8000 -1 -22.1000 38.8000 TC 25 -22.1000 38.8000 1 1 170
1969044S21039 1969 11 SI MM GILLETTE 1969-02-14 21:00:00 TS -22.1570 38.8024 main 337 337 P________PP___ SH221969 -22.1500 38.8000 -1 -22.1500 38.8000 TC 25 -22.1709 38.8072 1 1 0
1969044S21039 1969 11 SI MM GILLETTE 1969-02-15 00:00:00 TS -22.2142 38.8025 main 337 335 O________OP___ jtwc_sh SH221969 -22.2000 38.8000 -1 -22.2000 38.8000 TC 25 -22.2425 38.8075 1 1 0
1969044S21039 1969 11 SI MM GILLETTE 1969-02-15 03:00:00 TS -22.3009 38.8014 main 335 329 P________PP___ SH221969 -22.2925 38.8000 -1 -22.2925 38.8000 TC 25 -22.3178 38.8041 1 4 177
1969044S21039 1969 11 SI MM GILLETTE 1969-02-15 06:00:00 TS -22.6286 38.8286 reunion main 329 327 O____O___OO_O_ jtwc_sh SH221969 -22.4000 38.8000 -1 -24.0000 39.0000 3 9.90000 -22.4000 38.8000 TC 25 -22.4000 38.8000 1 -24.0000 39.0000 TC 35 7 174
1969044S21039 1969 11 SI MM GILLETTE 1969-02-15 09:00:00 TS -22.9726 38.8800 main 337 337 P____P___PP_P_ SH221969 -22.5000 38.8000 -1 -24.3975 39.1198 3 -22.5000 38.8000 TC 25 -22.4928 38.8000 1 -24.3975 39.1198 TC 35 7 169
1969044S21039 1969 11 SI MM GILLETTE 1969-02-15 12:00:00 TS -23.2983 38.9667 reunion main 350 350 O____O___OP_O_ jtwc_sh SH221969 -22.6000 38.8000 -1 -24.7000 39.3000 99 9.90000 -22.6000 38.8000 TC 25 -22.5925 38.8000 1 -24.7000 39.3000 TC 35 6 160
1969044S21039 1969 11 SI MM GILLETTE 1969-02-15 15:00:00 TS -23.5572 39.1110 main 365 365 P____P___PP_P_ SH221969 -22.7000 38.8000 -1 -24.8450 39.5776 99 -22.7000 38.8000 TC 25 -22.6959 38.8000 1 -24.8450 39.5776 TC 37 4 144
1969044S21039 1969 11 SI MM GILLETTE 1969-02-15 18:00:00 TS -23.6400 39.2400 reunion main 375 375 O____O___OO_O_ jtwc_sh SH221969 -22.8000 38.8000 -1 -24.9000 39.9000 99 9.90000 -22.8000 38.8000 TC 25 -22.8000 38.8000 1 -24.9000 39.9000 TC 40 3 126
1969044S21039 1969 11 SI MM GILLETTE 1969-02-15 21:00:00 TS -23.7268 39.3614 main 397 396 P____P___PP_P_ SH221969 -22.9000 38.8000 -1 -24.9650 40.2075 99 -22.9000 38.8000 TC 25 -22.9041 38.7919 1 -24.9650 40.2075 TC 42 3 127
1969044S21039 1969 11 SI MM GILLETTE 1969-02-16 00:00:00 TS -23.8015 39.4770 reunion main 406 406 O____O___OP_O_ jtwc_sh SH221969 -23.0000 38.8000 -1 -25.0000 40.5000 99 9.90000 -23.0000 38.8000 TC 25 -23.0075 38.7851 1 -25.0000 40.5000 TC 45 2 129
1969044S21039 1969 11 SI MM GILLETTE 1969-02-16 03:00:00 TS -23.8824 39.5740 main 406 397 P____P___PP_P_ SH221969 -23.1000 38.7925 -1 -25.0524 40.7497 99 -23.1000 38.7925 TC 30 -23.1072 38.7857 1 -25.0524 40.7497 TC 47 2 123
1969044S21039 1969 11 SI MM GILLETTE 1969-02-16 06:00:00 TS -23.9200 39.6800 reunion main 397 387 O____O___OO_O_ jtwc_sh SH221969 -23.2000 38.8000 -1 -25.0000 41.0000 3 9.90000 -23.2000 38.8000 TC 35 -23.2000 38.8000 2 -25.0000 41.0000 TC 50 3 90
1969044S21039 1969 11 SI MM GILLETTE 1969-02-16 09:00:00 TS -23.8843 39.8553 main 376 364 P____P___PP_P_ SH221969 -23.3075 38.8425 -1 -24.7602 41.3758 3 -23.3075 38.8425 TC 35 -23.2863 38.8396 2 -24.7602 41.3758 TC 52 3 65
1969044S21039 1969 11 SI MM GILLETTE 1969-02-16 12:00:00 TS -23.7930 39.9785 reunion main 364 361 O____O___OP_O_ jtwc_sh SH221969 -23.4000 38.9000 -1 -24.4000 41.6000 99 9.90000 -23.4000 38.9000 TC 35 -23.3650 38.8924 2 -24.4000 41.6000 TC 55 2 20
1969044S21039 1969 11 SI MM GILLETTE 1969-02-16 15:00:00 TS -23.6643 39.9425 main 371 367 P____P___PP_P_ SH221969 -23.4575 38.9575 -1 -23.9851 41.4242 99 -23.4575 38.9575 TC 35 -23.4363 38.9490 2 -23.9851 41.4242 TC 57 3 334
1969044S21039 1969 11 SI MM GILLETTE 1969-02-16 18:00:00 TS -23.5400 39.8400 reunion main 373 373 O____O___OO_O_ jtwc_sh SH221969 -23.5000 39.0000 -1 -23.6000 41.1000 99 9.90000 -23.5000 39.0000 TC 35 -23.5000 39.0000 2 -23.6000 41.1000 TC 60 3 321
1969044S21039 1969 11 SI MM GILLETTE 1969-02-16 21:00:00 TS -23.4679 39.7715 main 373 373 P____P___PP_P_ SH221969 -23.5500 39.0000 -1 -23.3473 40.9227 99 -23.5500 39.0000 TC 35 -23.5449 39.0120 2 -23.3473 40.9227 TC 60 2 306
1969044S21039 1969 11 SI MM GILLETTE 1969-02-17 00:00:00 TS -23.4370 39.6840 reunion main 378 378 O____O___OP_O_ jtwc_sh SH221969 -23.6000 39.0000 -1 -23.2000 40.7000 99 9.90000 -23.6000 39.0000 TC 35 -23.5849 39.0202 2 -23.2000 40.7000 TC 60 2 284
1969044S21039 1969 11 SI MM GILLETTE 1969-02-17 03:00:00 TS -23.4136 39.5306 main 398 392 P____P___PP_P_ SH221969 -23.6425 39.0350 -1 -23.0754 40.2699 99 -23.6425 39.0350 TC 35 -23.6324 39.0433 2 -23.0754 40.2699 TC 62 2 265
1969044S21039 1969 11 SI MM GILLETTE 1969-02-17 06:00:00 TS -23.4600 39.4200 reunion main 393 393 O____O___OO_O_ jtwc_sh SH221969 -23.7000 39.1000 -1 -23.1000 39.9000 4 9.90000 -23.7000 39.1000 TC 35 -23.7000 39.1000 2 -23.1000 39.9000 TC 65 2 201
1969044S21039 1969 11 SI MM GILLETTE 1969-02-17 09:00:00 TS -23.6198 39.4392 main 395 395 P____P___PP_P_ SH221969 -23.7850 39.1776 -1 -23.3548 39.8176 4 -23.7850 39.1776 TC 35 -23.8197 39.2057 2 -23.3548 39.8176 TC 65 4 162
1969044S21039 1969 11 SI MM GILLETTE 1969-02-17 12:00:00 TS -23.8315 39.5494 reunion main 406 397 O____O___OP_O_ jtwc_sh SH221969 -23.9000 39.3000 -1 -23.7000 39.9000 99 9.90000 -23.9000 39.3000 TC 35 -23.9575 39.3472 2 -23.7000 39.9000 TC 65 5 149
1969044S21039 1969 11 SI MM GILLETTE 1969-02-17 15:00:00 TS -24.0273 39.7050 main 397 379 P____P___PP_P_ SH221969 -24.0650 39.4924 -1 -23.9575 40.0125 99 -24.0650 39.4924 TC 35 -24.0915 39.5151 2 -23.9575 40.0125 TC 62 5 139
1969044S21039 1969 11 SI MM GILLETTE 1969-02-17 18:00:00 TS -24.2000 39.9000 reunion main 379 361 O____O___OO_O_ jtwc_sh SH221969 -24.2000 39.7000 -1 -24.2000 40.2000 99 9.90000 -24.2000 39.7000 TC 35 -24.2000 39.7000 2 -24.2000 40.2000 TC 60 5 130
1969044S21039 1969 11 SI MM GILLETTE 1969-02-17 21:00:00 TS -24.3178 40.0861 main 361 343 P____P___PP_P_ SH221969 -24.2149 39.8426 -1 -24.4651 40.4499 99 -24.2149 39.8426 TC 35 -24.2289 39.8457 2 -24.4651 40.4499 TC 60 4 121
1969044S21039 1969 11 SI MM GILLETTE 1969-02-18 00:00:00 TS -24.4068 40.2822 reunion main 343 334 O____O___OP_O_ jtwc_sh SH221969 -24.2000 40.0000 -1 -24.7000 40.7000 99 9.90000 -24.2000 40.0000 TC 35 -24.2341 40.0112 2 -24.7000 40.7000 TC 60 4 116
1969044S21039 1969 11 SI MM GILLETTE 1969-02-18 03:00:00 TS -24.4833 40.4574 main 326 308 P____P___PP_P_ SH221969 -24.2273 40.2052 -1 -24.8573 40.8279 99 -24.2273 40.2052 TC 35 -24.2474 40.2210 2 -24.8573 40.8279 TC 57 4 115
1969044S21039 1969 11 SI MM GILLETTE 1969-02-18 06:00:00 TS -24.5800 40.7000 reunion main 308 271 O____O___OO_O_ jtwc_sh SH221969 -24.3000 40.5000 -1 -25.0000 41.0000 3 9.90000 -24.3000 40.5000 TC 35 -24.3000 40.5000 2 -25.0000 41.0000 TC 55 6 114
1969044S21039 1969 11 SI MM GILLETTE 1969-02-18 09:00:00 TS -24.7368 41.0974 main 271 234 P____P___PP_P_ SH221969 -24.4276 40.9200 -1 -25.2003 41.3847 3 -24.4276 40.9200 TC 35 -24.4282 40.8778 2 -25.2003 41.3847 TC 50 8 114
1969044S21039 1969 11 SI MM GILLETTE 1969-02-18 12:00:00 TS -24.9196 41.5449 reunion main 234 199 O____O___OP_O_ jtwc_sh SH221969 -24.6000 41.4000 -1 -25.4000 41.8000 99 9.90000 -24.6000 41.4000 TC 35 -24.5981 41.3245 2 -25.4000 41.8000 TC 45 8 115
1969044S21039 1969 11 SI MM GILLETTE 1969-02-18 15:00:00 TS -25.0926 41.9250 main 199 170 P____P___PP_P_ SH221969 -24.7924 41.8501 -1 -25.5422 42.0579 99 -24.7924 41.8501 TC 35 -24.7938 41.8092 2 -25.5422 42.0579 TC 40 8 118
1969044S21039 1969 11 SI MM GILLETTE 1969-02-18 18:00:00 TS -25.2800 42.3000 reunion main 170 142 O____O___OO_O_ jtwc_sh SH221969 -25.0000 42.3000 -1 -25.7000 42.3000 99 9.90000 -25.0000 42.3000 TC 35 -25.0000 42.3000 2 -25.7000 42.3000 TC 35 8 121
1969044S21039 1969 11 SI MM GILLETTE 1969-02-18 21:00:00 TS -25.5158 42.6992 main 142 119 P____P___PP_P_ SH221969 -25.1999 42.7501 -1 -25.9873 42.6120 99 -25.1999 42.7501 TC 35 -25.2044 42.7716 2 -25.9873 42.6120 TC 32 9 121
1969044S21039 1969 11 SI MM GILLETTE 1969-02-19 00:00:00 TS -25.7211 43.1249 reunion main 119 97 O____O___OP_O_ jtwc_sh SH221969 -25.4000 43.2000 -1 -26.2000 43.0000 99 9.90000 -25.4000 43.2000 TC 35 -25.4054 43.2243 2 -26.2000 43.0000 TC 30 9 112
1969044S21039 1969 11 SI MM GILLETTE 1969-02-19 03:00:00 TS -25.8310 43.5832 main 97 78 P____P___PP_P_ SH221969 -25.6003 43.6497 -1 -26.1755 43.4758 99 -25.6003 43.6497 TC 35 -25.6037 43.6649 2 -26.1755 43.4758 TC 30 9 101
1969044S21039 1969 11 SI MM GILLETTE 1969-02-19 06:00:00 MX -25.8800 44.0600 reunion main 73 O____O___OO_O_ jtwc_sh SH221969 -25.8000 44.1000 -1 -26.0000 44.0000 5 9.90000 -25.8000 44.1000 TC 35 -25.8000 44.1000 2 -26.0000 44.0000 EX 30 9 96

About IBTrACS Database

This database is a web-friendly format of International Best Track Archive for Climate Stewardship (IBTrACS), a global best track data archive curated by NOAA dating back to 1842.

Updated: 2021-12-01